Serifos, Greece
Current Conditions -  °F | °C
As of 8:50 PM on Sunday 25 Jan 2015 (Local Time) from LGMK Reporting Station
Scattered Clouds Scattered Clouds  
Wind Chill: 55°   Ceiling: Unl
Heat Index: 55°   Visibility: 6mi
Dew Point: 48°   Wind: 13mph
Humidity: 77%   Direction: 180°S
Pressure: 29.85"   Gusts: NA
Location:  37.15°N, 24.5°E
Report Text: LGMK 251750Z 18011KT 9999 SCT015 SCT018TCU 13/09 Q1011
Loading
Personal Weather Stations






























Interactive Weather Map New forecast layout! Learn more

10-Day Weather Forecast

Advertisements
Track Severe Weather on mobile